sensor_id;sensor_type;location;lat;lon;timestamp;pressure;altitude;pressure_sealevel;temperature;humidity
61205;BME280;47068;55.780;37.520;2023-07-22T00:00:38;99171.81;;;17.19;59.88
61205;BME280;47068;55.780;37.520;2023-07-22T00:03:04;99175.72;;;17.23;59.48
61205;BME280;47068;55.780;37.520;2023-07-22T00:05:29;99173.84;;;17.24;59.72
61205;BME280;47068;55.780;37.520;2023-07-22T00:07:54;99181.31;;;17.22;59.73
61205;BME280;47068;55.780;37.520;2023-07-22T00:10:20;99179.06;;;17.19;59.74
61205;BME280;47068;55.780;37.520;2023-07-22T00:12:45;99189.22;;;17.17;59.55
61205;BME280;47068;55.780;37.520;2023-07-22T00:15:10;99180.78;;;17.13;59.71
61205;BME280;47068;55.780;37.520;2023-07-22T00:17:39;99182.41;;;17.14;59.86
61205;BME280;47068;55.780;37.520;2023-07-22T00:20:05;99177.88;;;17.15;59.95
61205;BME280;47068;55.780;37.520;2023-07-22T00:22:32;99185.53;;;17.11;59.44
61205;BME280;47068;55.780;37.520;2023-07-22T00:24:57;99182.69;;;17.06;59.56
61205;BME280;47068;55.780;37.520;2023-07-22T00:27:25;99175.09;;;16.97;60.12
61205;BME280;47068;55.780;37.520;2023-07-22T00:29:50;99179.63;;;16.96;60.26
61205;BME280;47068;55.780;37.520;2023-07-22T00:32:15;99184.59;;;16.99;60.42
61205;BME280;47068;55.780;37.520;2023-07-22T00:34:41;99185.63;;;16.98;60.69
61205;BME280;47068;55.780;37.520;2023-07-22T00:37:06;99185.41;;;17.00;60.67
61205;BME280;47068;55.780;37.520;2023-07-22T00:39:31;99189.75;;;17.01;60.53
61205;BME280;47068;55.780;37.520;2023-07-22T00:41:56;99187.28;;;16.99;61.00
61205;BME280;47068;55.780;37.520;2023-07-22T00:44:22;99185.78;;;17.03;60.88
61205;BME280;47068;55.780;37.520;2023-07-22T00:46:47;99186.19;;;17.07;60.16
61205;BME280;47068;55.780;37.520;2023-07-22T00:49:14;99186.00;;;17.02;60.58
61205;BME280;47068;55.780;37.520;2023-07-22T00:51:39;99191.38;;;17.02;60.50
61205;BME280;47068;55.780;37.520;2023-07-22T00:54:05;99196.53;;;17.03;60.72
61205;BME280;47068;55.780;37.520;2023-07-22T00:56:31;99195.28;;;17.06;60.82
61205;BME280;47068;55.780;37.520;2023-07-22T00:58:58;99187.44;;;17.04;60.76
61205;BME280;47068;55.780;37.520;2023-07-22T01:01:24;99198.66;;;16.94;60.99
61205;BME280;47068;55.780;37.520;2023-07-22T01:03:49;99191.91;;;16.85;61.46
61205;BME280;47068;55.780;37.520;2023-07-22T01:06:14;99196.69;;;16.83;61.66
61205;BME280;47068;55.780;37.520;2023-07-22T01:08:40;99189.81;;;16.94;61.33
61205;BME280;47068;55.780;37.520;2023-07-22T01:11:05;99193.06;;;16.96;61.02
61205;BME280;47068;55.780;37.520;2023-07-22T01:13:31;99199.28;;;16.97;61.01
61205;BME280;47068;55.780;37.520;2023-07-22T01:15:56;99201.75;;;16.98;60.77
61205;BME280;47068;55.780;37.520;2023-07-22T01:18:22;99203.81;;;16.96;60.72
61205;BME280;47068;55.780;37.520;2023-07-22T01:20:47;99205.53;;;16.90;60.94
61205;BME280;47068;55.780;37.520;2023-07-22T01:23:12;99201.63;;;16.86;60.79
61205;BME280;47068;55.780;37.520;2023-07-22T01:25:38;99207.84;;;16.80;61.36
61205;BME280;47068;55.780;37.520;2023-07-22T01:28:03;99218.00;;;16.78;61.06
61205;BME280;47068;55.780;37.520;2023-07-22T01:30:33;99220.06;;;16.76;61.21
61205;BME280;47068;55.780;37.520;2023-07-22T01:32:59;99213.69;;;16.71;61.28
61205;BME280;47068;55.780;37.520;2023-07-22T01:35:24;99225.69;;;16.68;61.40
61205;BME280;47068;55.780;37.520;2023-07-22T01:37:51;99225.72;;;16.62;61.66
61205;BME280;47068;55.780;37.520;2023-07-22T01:40:16;99233.38;;;16.58;62.04
61205;BME280;47068;55.780;37.520;2023-07-22T01:42:43;99229.03;;;16.57;62.10
61205;BME280;47068;55.780;37.520;2023-07-22T01:45:08;99229.03;;;16.57;62.25
61205;BME280;47068;55.780;37.520;2023-07-22T01:47:37;99241.44;;;16.58;62.09
61205;BME280;47068;55.780;37.520;2023-07-22T01:50:03;99228.63;;;16.60;62.17
61205;BME280;47068;55.780;37.520;2023-07-22T01:52:29;99230.69;;;16.58;62.35
61205;BME280;47068;55.780;37.520;2023-07-22T01:54:54;99238.75;;;16.58;62.14
61205;BME280;47068;55.780;37.520;2023-07-22T01:57:19;99231.91;;;16.62;62.30
61205;BME280;47068;55.780;37.520;2023-07-22T01:59:45;99236.88;;;16.65;62.25
61205;BME280;47068;55.780;37.520;2023-07-22T02:02:10;99241.38;;;16.71;61.96
61205;BME280;47068;55.780;37.520;2023-07-22T02:04:35;99239.31;;;16.73;61.91
61205;BME280;47068;55.780;37.520;2023-07-22T02:07:01;99242.59;;;16.75;61.85
61205;BME280;47068;55.780;37.520;2023-07-22T02:09:26;99246.72;;;16.78;61.55
61205;BME280;47068;55.780;37.520;2023-07-22T02:11:52;99246.31;;;16.74;61.88
61205;BME280;47068;55.780;37.520;2023-07-22T02:14:18;99237.47;;;16.67;62.25
61205;BME280;47068;55.780;37.520;2023-07-22T02:16:43;99240.13;;;16.74;62.13
61205;BME280;47068;55.780;37.520;2023-07-22T02:19:08;99238.25;;;16.74;61.85
61205;BME280;47068;55.780;37.520;2023-07-22T02:21:34;99244.25;;;16.76;62.02
61205;BME280;47068;55.780;37.520;2023-07-22T02:23:59;99246.94;;;16.76;62.06
61205;BME280;47068;55.780;37.520;2023-07-22T02:26:24;99245.91;;;16.77;61.99
61205;BME280;47068;55.780;37.520;2023-07-22T02:28:50;99244.41;;;16.81;61.89
61205;BME280;47068;55.780;37.520;2023-07-22T02:31:15;99243.41;;;16.76;61.91
61205;BME280;47068;55.780;37.520;2023-07-22T02:33:40;99246.34;;;16.68;61.98
61205;BME280;47068;55.780;37.520;2023-07-22T02:36:06;99250.47;;;16.70;62.51
61205;BME280;47068;55.780;37.520;2023-07-22T02:38:31;99252.94;;;16.78;62.13
61205;BME280;47068;55.780;37.520;2023-07-22T02:41:03;99261.56;;;16.80;61.79
61205;BME280;47068;55.780;37.520;2023-07-22T02:43:31;99253.34;;;16.75;62.01
61205;BME280;47068;55.780;37.520;2023-07-22T02:45:56;99260.81;;;16.73;61.95
61205;BME280;47068;55.780;37.520;2023-07-22T02:48:21;99262.44;;;16.74;61.90
61205;BME280;47068;55.780;37.520;2023-07-22T02:50:46;99260.41;;;16.70;62.13
61205;BME280;47068;55.780;37.520;2023-07-22T02:53:12;99261.22;;;16.70;62.08
61205;BME280;47068;55.780;37.520;2023-07-22T02:55:37;99263.09;;;16.70;62.46
61205;BME280;47068;55.780;37.520;2023-07-22T02:58:03;99262.88;;;16.71;62.41
61205;BME280;47068;55.780;37.520;2023-07-22T03:00:28;99265.75;;;16.76;62.50
61205;BME280;47068;55.780;37.520;2023-07-22T03:02:54;99267.84;;;16.68;62.46
61205;BME280;47068;55.780;37.520;2023-07-22T03:05:25;99265.34;;;16.60;62.77
61205;BME280;47068;55.780;37.520;2023-07-22T03:07:51;99270.31;;;16.69;62.68
61205;BME280;47068;55.780;37.520;2023-07-22T03:10:18;99274.78;;;16.82;62.37
61205;BME280;47068;55.780;37.520;2023-07-22T03:12:43;99279.94;;;16.90;62.31
61205;BME280;47068;55.780;37.520;2023-07-22T03:15:09;99271.47;;;16.93;61.90
61205;BME280;47068;55.780;37.520;2023-07-22T03:17:35;99277.25;;;16.90;61.90
61205;BME280;47068;55.780;37.520;2023-07-22T03:20:01;99273.31;;;16.92;62.01
61205;BME280;47068;55.780;37.520;2023-07-22T03:22:29;99271.19;;;17.01;61.82
61205;BME280;47068;55.780;37.520;2023-07-22T03:24:54;99276.16;;;16.98;61.97
61205;BME280;47068;55.780;37.520;2023-07-22T03:27:19;99271.13;;;17.14;61.52
61205;BME280;47068;55.780;37.520;2023-07-22T03:29:45;99279.94;;;17.28;61.28
61205;BME280;47068;55.780;37.520;2023-07-22T03:32:10;99269.53;;;17.31;60.87
61205;BME280;47068;55.780;37.520;2023-07-22T03:34:35;99276.53;;;17.39;60.66
61205;BME280;47068;55.780;37.520;2023-07-22T03:37:01;99266.19;;;17.36;60.82
61205;BME280;47068;55.780;37.520;2023-07-22T03:39:26;99276.53;;;17.39;60.43
61205;BME280;47068;55.780;37.520;2023-07-22T03:41:51;99269.06;;;17.41;60.47
61205;BME280;47068;55.780;37.520;2023-07-22T03:44:17;99273.13;;;17.50;60.49
61205;BME280;47068;55.780;37.520;2023-07-22T03:46:42;99280.97;;;17.52;60.05
61205;BME280;47068;55.780;37.520;2023-07-22T03:49:07;99278.06;;;17.53;59.93
61205;BME280;47068;55.780;37.520;2023-07-22T03:51:33;99291.28;;;17.61;59.65
61205;BME280;47068;55.780;37.520;2023-07-22T03:53:58;99290.41;;;17.67;59.85
61205;BME280;47068;55.780;37.520;2023-07-22T03:56:23;99286.16;;;17.78;59.23
61205;BME280;47068;55.780;37.520;2023-07-22T03:58:49;99286.56;;;17.82;59.08
61205;BME280;47068;55.780;37.520;2023-07-22T04:01:14;99291.50;;;17.85;58.87
61205;BME280;47068;55.780;37.520;2023-07-22T04:03:40;99293.97;;;17.86;58.79
61205;BME280;47068;55.780;37.520;2023-07-22T04:06:05;99294.38;;;17.90;58.80
61205;BME280;47068;55.780;37.520;2023-07-22T04:08:30;99290.63;;;17.91;58.85
61205;BME280;47068;55.780;37.520;2023-07-22T04:10:56;99283.03;;;18.06;58.54
61205;BME280;47068;55.780;37.520;2023-07-22T04:13:23;99282.31;;;18.17;58.45
61205;BME280;47068;55.780;37.520;2023-07-22T04:15:48;99284.53;;;18.20;58.17
61205;BME280;47068;55.780;37.520;2023-07-22T04:18:17;99283.88;;;18.25;58.31
61205;BME280;47068;55.780;37.520;2023-07-22T04:20:43;99280.50;;;18.29;58.11
61205;BME280;47068;55.780;37.520;2023-07-22T04:23:08;99278.66;;;18.30;57.96
61205;BME280;47068;55.780;37.520;2023-07-22T04:25:38;99282.09;;;18.37;57.78
61205;BME280;47068;55.780;37.520;2023-07-22T04:28:03;99291.00;;;18.37;57.88
61205;BME280;47068;55.780;37.520;2023-07-22T04:30:29;99291.63;;;18.58;57.69
61205;BME280;47068;55.780;37.520;2023-07-22T04:32:54;99284.72;;;18.80;56.78
61205;BME280;47068;55.780;37.520;2023-07-22T04:35:19;99281.84;;;18.93;56.45
61205;BME280;47068;55.780;37.520;2023-07-22T04:37:44;99289.16;;;19.04;56.18
61205;BME280;47068;55.780;37.520;2023-07-22T04:40:13;99291.78;;;19.22;56.10
61205;BME280;47068;55.780;37.520;2023-07-22T04:42:39;99297.59;;;19.38;55.42
61205;BME280;47068;55.780;37.520;2023-07-22T04:45:06;99291.81;;;19.64;54.94
61205;BME280;47068;55.780;37.520;2023-07-22T04:47:31;99289.25;;;19.92;54.25
61205;BME280;47068;55.780;37.520;2023-07-22T04:49:56;99289.97;;;19.99;54.06
61205;BME280;47068;55.780;37.520;2023-07-22T04:52:22;99300.66;;;20.18;53.63
61205;BME280;47068;55.780;37.520;2023-07-22T04:54:47;99300.09;;;20.39;52.90
61205;BME280;47068;55.780;37.520;2023-07-22T04:57:12;99302.75;;;20.62;52.44
61205;BME280;47068;55.780;37.520;2023-07-22T04:59:38;99296.25;;;21.03;51.46
61205;BME280;47068;55.780;37.520;2023-07-22T05:02:03;99295.75;;;21.46;50.39
61205;BME280;47068;55.780;37.520;2023-07-22T05:04:29;99301.88;;;22.04;49.03
61205;BME280;47068;55.780;37.520;2023-07-22T05:06:54;99297.47;;;22.74;46.90
61205;BME280;47068;55.780;37.520;2023-07-22T05:09:20;99305.06;;;22.99;46.02
61205;BME280;47068;55.780;37.520;2023-07-22T05:11:45;99296.44;;;23.88;44.29
61205;BME280;47068;55.780;37.520;2023-07-22T05:14:10;99282.44;;;25.10;42.15
61205;BME280;47068;55.780;37.520;2023-07-22T05:16:36;99290.16;;;25.74;40.50
61205;BME280;47068;55.780;37.520;2023-07-22T05:19:01;99289.31;;;25.54;40.30
61205;BME280;47068;55.780;37.520;2023-07-22T05:21:27;99297.47;;;25.23;40.91
61205;BME280;47068;55.780;37.520;2023-07-22T05:23:52;99292.75;;;24.93;41.75
61205;BME280;47068;55.780;37.520;2023-07-22T05:26:17;99298.81;;;24.53;41.52
61205;BME280;47068;55.780;37.520;2023-07-22T05:28:42;99293.97;;;23.86;43.07
61205;BME280;47068;55.780;37.520;2023-07-22T05:31:08;99290.72;;;23.52;43.55
61205;BME280;47068;55.780;37.520;2023-07-22T05:33:33;99290.03;;;23.67;44.24
61205;BME280;47068;55.780;37.520;2023-07-22T05:35:59;99295.09;;;23.85;43.96
61205;BME280;47068;55.780;37.520;2023-07-22T05:38:24;99290.31;;;24.08;43.38
61205;BME280;47068;55.780;37.520;2023-07-22T05:40:51;99285.69;;;24.40;42.03
61205;BME280;47068;55.780;37.520;2023-07-22T05:43:16;99292.78;;;24.46;42.50
61205;BME280;47068;55.780;37.520;2023-07-22T05:45:41;99281.25;;;24.86;41.55
61205;BME280;47068;55.780;37.520;2023-07-22T05:48:07;99281.69;;;25.40;40.30
61205;BME280;47068;55.780;37.520;2023-07-22T05:50:32;99280.59;;;26.07;39.05
61205;BME280;47068;55.780;37.520;2023-07-22T05:52:57;99291.22;;;26.29;38.28
61205;BME280;47068;55.780;37.520;2023-07-22T05:55:23;99280.56;;;26.48;38.26
61205;BME280;47068;55.780;37.520;2023-07-22T05:57:48;99281.22;;;26.89;36.90
61205;BME280;47068;55.780;37.520;2023-07-22T06:00:14;99277.84;;;26.48;37.78
61205;BME280;47068;55.780;37.520;2023-07-22T06:02:39;99277.84;;;26.22;37.76
61205;BME280;47068;55.780;37.520;2023-07-22T06:05:04;99284.97;;;26.03;38.43
61205;BME280;47068;55.780;37.520;2023-07-22T06:07:30;99272.47;;;25.92;38.76
61205;BME280;47068;55.780;37.520;2023-07-22T06:09:56;99280.91;;;25.96;38.66
61205;BME280;47068;55.780;37.520;2023-07-22T06:12:21;99274.06;;;26.03;38.45
61205;BME280;47068;55.780;37.520;2023-07-22T06:14:46;99277.88;;;26.12;38.00
61205;BME280;47068;55.780;37.520;2023-07-22T06:17:12;99277.81;;;26.53;37.67
61205;BME280;47068;55.780;37.520;2023-07-22T06:19:37;99284.19;;;27.02;36.35
61205;BME280;47068;55.780;37.520;2023-07-22T06:22:02;99281.31;;;27.96;35.02
61205;BME280;47068;55.780;37.520;2023-07-22T06:24:27;99274.16;;;29.00;33.41
61205;BME280;47068;55.780;37.520;2023-07-22T06:26:53;99280.47;;;30.08;31.60
61205;BME280;47068;55.780;37.520;2023-07-22T06:29:18;99280.50;;;30.90;30.80
61205;BME280;47068;55.780;37.520;2023-07-22T06:31:44;99271.72;;;31.51;29.98
61205;BME280;47068;55.780;37.520;2023-07-22T06:34:09;99269.75;;;32.50;28.54
61205;BME280;47068;55.780;37.520;2023-07-22T06:36:34;99266.84;;;33.29;26.85
61205;BME280;47068;55.780;37.520;2023-07-22T06:39:00;99270.88;;;33.05;26.79
61205;BME280;47068;55.780;37.520;2023-07-22T06:41:25;99266.75;;;32.37;27.73
61205;BME280;47068;55.780;37.520;2023-07-22T06:43:51;99271.91;;;32.30;27.24
61205;BME280;47068;55.780;37.520;2023-07-22T06:46:16;99270.53;;;33.07;26.81
61205;BME280;47068;55.780;37.520;2023-07-22T06:48:41;99267.03;;;34.68;24.42
61205;BME280;47068;55.780;37.520;2023-07-22T06:51:07;99272.97;;;35.91;23.10
61205;BME280;47068;55.780;37.520;2023-07-22T06:53:32;99271.59;;;36.91;21.45
61205;BME280;47068;55.780;37.520;2023-07-22T06:55:58;99273.91;;;37.81;20.63
61205;BME280;47068;55.780;37.520;2023-07-22T06:58:23;99266.28;;;39.58;18.90
61205;BME280;47068;55.780;37.520;2023-07-22T07:00:52;99267.91;;;41.22;17.07
61205;BME280;47068;55.780;37.520;2023-07-22T07:03:17;99269.03;;;42.59;16.23
61205;BME280;47068;55.780;37.520;2023-07-22T07:05:43;99267.41;;;44.10;14.37
61205;BME280;47068;55.780;37.520;2023-07-22T07:08:08;99264.63;;;44.81;13.72
61205;BME280;47068;55.780;37.520;2023-07-22T07:10:38;99260.53;;;45.10;13.23
61205;BME280;47068;55.780;37.520;2023-07-22T07:13:42;99255.34;;;44.06;13.85
61205;BME280;47068;55.780;37.520;2023-07-22T07:16:28;99251.63;;;43.59;13.81
61205;BME280;47068;55.780;37.520;2023-07-22T07:18:54;99254.38;;;43.48;14.16
61205;BME280;47068;55.780;37.520;2023-07-22T07:21:20;99253.31;;;43.81;14.04
61205;BME280;47068;55.780;37.520;2023-07-22T07:23:47;99248.09;;;43.69;14.15
61205;BME280;47068;55.780;37.520;2023-07-22T07:26:12;99241.28;;;43.77;13.58
61205;BME280;47068;55.780;37.520;2023-07-22T07:28:38;99244.59;;;44.50;13.33
61205;BME280;47068;55.780;37.520;2023-07-22T07:31:03;99242.34;;;46.19;11.91
61205;BME280;47068;55.780;37.520;2023-07-22T07:33:29;99242.72;;;48.25;11.00
61205;BME280;47068;55.780;37.520;2023-07-22T07:35:54;99259.50;;;49.61;10.20
61205;BME280;47068;55.780;37.520;2023-07-22T07:38:20;99244.28;;;50.07;9.10
61205;BME280;47068;55.780;37.520;2023-07-22T07:40:45;99244.41;;;50.04;9.19
61205;BME280;47068;55.780;37.520;2023-07-22T07:43:11;99230.38;;;51.07;8.85
61205;BME280;47068;55.780;37.520;2023-07-22T07:45:39;99239.13;;;51.54;8.38
61205;BME280;47068;55.780;37.520;2023-07-22T07:48:05;99235.22;;;50.16;9.10
61205;BME280;47068;55.780;37.520;2023-07-22T07:50:32;99238.38;;;49.86;9.50
61205;BME280;47068;55.780;37.520;2023-07-22T07:52:57;99210.81;;;49.54;9.60
61205;BME280;47068;55.780;37.520;2023-07-22T07:55:24;99219.53;;;49.95;9.29
61205;BME280;47068;55.780;37.520;2023-07-22T07:57:50;99226.28;;;49.85;9.41
61205;BME280;47068;55.780;37.520;2023-07-22T08:00:16;99231.34;;;49.74;9.51
61205;BME280;47068;55.780;37.520;2023-07-22T08:02:41;99198.84;;;47.70;10.61
61205;BME280;47068;55.780;37.520;2023-07-22T08:05:07;99219.38;;;47.98;10.68
61205;BME280;47068;55.780;37.520;2023-07-22T08:07:33;99212.22;;;48.16;10.19
61205;BME280;47068;55.780;37.520;2023-07-22T08:09:58;99220.28;;;47.64;10.69
61205;BME280;47068;55.780;37.520;2023-07-22T08:12:24;99214.06;;;47.16;11.13
61205;BME280;47068;55.780;37.520;2023-07-22T08:14:52;99205.41;;;46.99;10.97
61205;BME280;47068;55.780;37.520;2023-07-22T08:17:18;99213.75;;;45.69;11.49
61205;BME280;47068;55.780;37.520;2023-07-22T08:19:43;99214.78;;;45.17;12.35
61205;BME280;47068;55.780;37.520;2023-07-22T08:22:09;99204.28;;;43.22;13.45
61205;BME280;47068;55.780;37.520;2023-07-22T08:24:35;99220.44;;;40.40;15.85
61205;BME280;47068;55.780;37.520;2023-07-22T08:27:00;99211.75;;;38.02;17.97
61205;BME280;47068;55.780;37.520;2023-07-22T08:29:25;99210.38;;;36.72;19.16
61205;BME280;47068;55.780;37.520;2023-07-22T08:31:51;99195.84;;;34.65;20.42
61205;BME280;47068;55.780;37.520;2023-07-22T08:34:16;99208.94;;;33.20;22.63
61205;BME280;47068;55.780;37.520;2023-07-22T08:36:42;99214.09;;;32.30;23.55
61205;BME280;47068;55.780;37.520;2023-07-22T08:39:07;99204.09;;;31.50;24.43
61205;BME280;47068;55.780;37.520;2023-07-22T08:41:33;99210.41;;;30.79;25.52
61205;BME280;47068;55.780;37.520;2023-07-22T08:44:00;99226.31;;;30.27;25.43
61205;BME280;47068;55.780;37.520;2023-07-22T08:46:28;99230.94;;;29.67;26.49
61205;BME280;47068;55.780;37.520;2023-07-22T08:48:59;99223.84;;;28.96;27.62
61205;BME280;47068;55.780;37.520;2023-07-22T08:51:26;99223.66;;;28.45;28.51
61205;BME280;47068;55.780;37.520;2023-07-22T08:53:54;99211.28;;;28.00;30.04
61205;BME280;47068;55.780;37.520;2023-07-22T08:56:24;99229.91;;;27.69;31.12
61205;BME280;47068;55.780;37.520;2023-07-22T08:58:51;99218.78;;;27.21;32.63
61205;BME280;47068;55.780;37.520;2023-07-22T09:01:17;99232.84;;;27.38;32.10
61205;BME280;47068;55.780;37.520;2023-07-22T09:03:43;99238.53;;;27.47;31.50
61205;BME280;47068;55.780;37.520;2023-07-22T09:06:10;99224.25;;;27.21;31.71
61205;BME280;47068;55.780;37.520;2023-07-22T09:08:36;99221.06;;;27.09;32.17
61205;BME280;47068;55.780;37.520;2023-07-22T09:11:04;99246.16;;;27.11;32.38
61205;BME280;47068;55.780;37.520;2023-07-22T09:13:29;99237.44;;;26.55;33.26
61205;BME280;47068;55.780;37.520;2023-07-22T09:15:59;99243.22;;;26.33;34.08
61205;BME280;47068;55.780;37.520;2023-07-22T09:18:25;99226.66;;;26.04;34.28
61205;BME280;47068;55.780;37.520;2023-07-22T09:20:51;99245.19;;;26.02;34.33
61205;BME280;47068;55.780;37.520;2023-07-22T09:23:16;99224.78;;;25.74;34.19
61205;BME280;47068;55.780;37.520;2023-07-22T09:25:42;99249.84;;;25.56;34.51
61205;BME280;47068;55.780;37.520;2023-07-22T09:28:08;99247.09;;;25.36;34.87
61205;BME280;47068;55.780;37.520;2023-07-22T09:30:36;99236.75;;;25.28;34.87
61205;BME280;47068;55.780;37.520;2023-07-22T09:33:06;99242.44;;;25.31;35.16
61205;BME280;47068;55.780;37.520;2023-07-22T09:35:45;99241.94;;;25.49;35.50
61205;BME280;47068;55.780;37.520;2023-07-22T09:38:11;99225.91;;;25.58;35.15
61205;BME280;47068;55.780;37.520;2023-07-22T09:40:39;99225.59;;;25.60;34.69
61205;BME280;47068;55.780;37.520;2023-07-22T09:43:05;99235.38;;;25.56;34.97
61205;BME280;47068;55.780;37.520;2023-07-22T09:45:31;99243.81;;;25.24;35.12
61205;BME280;47068;55.780;37.520;2023-07-22T09:47:58;99249.50;;;25.17;35.87
61205;BME280;47068;55.780;37.520;2023-07-22T09:50:24;99246.25;;;25.15;35.76
61205;BME280;47068;55.780;37.520;2023-07-22T09:55:18;99232.38;;;25.32;35.32
61205;BME280;47068;55.780;37.520;2023-07-22T09:57:56;99246.81;;;25.52;34.97
61205;BME280;47068;55.780;37.520;2023-07-22T10:00:24;99256.41;;;25.65;34.83
61205;BME280;47068;55.780;37.520;2023-07-22T10:02:51;99248.47;;;25.74;34.86
61205;BME280;47068;55.780;37.520;2023-07-22T10:05:18;99245.50;;;25.70;34.95
61205;BME280;47068;55.780;37.520;2023-07-22T10:07:51;99262.09;;;25.59;34.02
61205;BME280;47068;55.780;37.520;2023-07-22T10:10:23;99259.06;;;25.40;35.40
61205;BME280;47068;55.780;37.520;2023-07-22T10:12:49;99245.16;;;25.31;34.65
61205;BME280;47068;55.780;37.520;2023-07-22T10:15:15;99262.63;;;25.40;34.78
61205;BME280;47068;55.780;37.520;2023-07-22T10:17:43;99249.53;;;25.22;34.85
61205;BME280;47068;55.780;37.520;2023-07-22T10:20:10;99249.75;;;25.00;35.34
61205;BME280;47068;55.780;37.520;2023-07-22T10:22:44;99258.22;;;25.14;35.52
61205;BME280;47068;55.780;37.520;2023-07-22T10:25:20;99259.31;;;25.13;35.47
61205;BME280;47068;55.780;37.520;2023-07-22T10:27:47;99262.59;;;25.15;34.93
61205;BME280;47068;55.780;37.520;2023-07-22T10:30:14;99256.31;;;25.09;34.25
61205;BME280;47068;55.780;37.520;2023-07-22T10:32:48;99254.56;;;24.83;34.77
61205;BME280;47068;55.780;37.520;2023-07-22T10:35:39;99252.84;;;24.57;35.86
61205;BME280;47068;55.780;37.520;2023-07-22T10:38:08;99273.25;;;24.54;35.72
61205;BME280;47068;55.780;37.520;2023-07-22T10:40:48;99222.00;;;24.31;35.84
61205;BME280;47068;55.780;37.520;2023-07-22T10:43:20;99269.75;;;24.69;36.14
61205;BME280;47068;55.780;37.520;2023-07-22T10:45:54;99278.53;;;24.81;34.85
61205;BME280;47068;55.780;37.520;2023-07-22T10:48:21;99274.44;;;24.84;35.67
61205;BME280;47068;55.780;37.520;2023-07-22T10:50:48;99278.34;;;25.08;35.15
61205;BME280;47068;55.780;37.520;2023-07-22T10:56:20;99282.13;;;24.97;34.85
61205;BME280;47068;55.780;37.520;2023-07-22T11:12:02;99279.25;;;24.61;35.35
61205;BME280;47068;55.780;37.520;2023-07-22T11:14:30;99268.91;;;24.58;35.74
61205;BME280;47068;55.780;37.520;2023-07-22T11:16:57;99272.72;;;24.62;35.57
61205;BME280;47068;55.780;37.520;2023-07-22T11:19:24;99256.16;;;24.69;34.88
61205;BME280;47068;55.780;37.520;2023-07-22T11:21:52;99269.53;;;24.81;34.24
61205;BME280;47068;55.780;37.520;2023-07-22T11:24:19;99261.34;;;24.76;34.43
61205;BME280;47068;55.780;37.520;2023-07-22T11:26:46;99243.63;;;24.63;33.60
61205;BME280;47068;55.780;37.520;2023-07-22T11:29:12;99274.72;;;24.82;33.31
61205;BME280;47068;55.780;37.520;2023-07-22T11:31:40;99279.53;;;24.65;34.24
61205;BME280;47068;55.780;37.520;2023-07-22T11:34:08;99242.19;;;24.40;33.27
61205;BME280;47068;55.780;37.520;2023-07-22T11:36:34;99282.75;;;24.57;34.23
61205;BME280;47068;55.780;37.520;2023-07-22T11:39:06;99269.97;;;24.52;34.67
61205;BME280;47068;55.780;37.520;2023-07-22T11:41:32;99280.94;;;24.72;33.86
61205;BME280;47068;55.780;37.520;2023-07-22T11:43:59;99270.16;;;24.93;33.58
61205;BME280;47068;55.780;37.520;2023-07-22T11:46:26;99272.38;;;25.11;33.87
61205;BME280;47068;55.780;37.520;2023-07-22T11:48:53;99277.31;;;25.29;33.13
61205;BME280;47068;55.780;37.520;2023-07-22T11:51:21;99280.00;;;25.24;32.91
61205;BME280;47068;55.780;37.520;2023-07-22T11:53:50;99273.44;;;25.05;32.81
61205;BME280;47068;55.780;37.520;2023-07-22T11:56:33;99284.22;;;24.85;33.13
61205;BME280;47068;55.780;37.520;2023-07-22T11:58:59;99274.34;;;24.58;33.18
61205;BME280;47068;55.780;37.520;2023-07-22T12:01:32;99277.53;;;24.40;33.27
61205;BME280;47068;55.780;37.520;2023-07-22T12:03:57;99294.09;;;24.39;34.24
61205;BME280;47068;55.780;37.520;2023-07-22T12:06:25;99268.63;;;24.13;34.91
61205;BME280;47068;55.780;37.520;2023-07-22T12:08:52;99307.31;;;24.20;35.68
61205;BME280;47068;55.780;37.520;2023-07-22T12:11:22;99292.00;;;24.14;35.94
61205;BME280;47068;55.780;37.520;2023-07-22T12:14:04;99288.56;;;24.23;35.36
61205;BME280;47068;55.780;37.520;2023-07-22T12:16:31;99281.91;;;24.46;34.87
61205;BME280;47068;55.780;37.520;2023-07-22T12:18:56;99265.59;;;24.46;34.98
61205;BME280;47068;55.780;37.520;2023-07-22T12:21:22;99274.34;;;24.58;34.41
61205;BME280;47068;55.780;37.520;2023-07-22T12:23:47;99281.16;;;24.61;35.73
61205;BME280;47068;55.780;37.520;2023-07-22T12:26:13;99262.91;;;24.56;35.05
61205;BME280;47068;55.780;37.520;2023-07-22T12:28:38;99278.47;;;24.71;34.02
61205;BME280;47068;55.780;37.520;2023-07-22T12:31:04;99270.53;;;24.59;34.21
61205;BME280;47068;55.780;37.520;2023-07-22T12:33:29;99263.72;;;24.62;33.44
61205;BME280;47068;55.780;37.520;2023-07-22T12:35:56;99273.28;;;24.64;33.88
61205;BME280;47068;55.780;37.520;2023-07-22T12:38:22;99264.53;;;24.52;35.09
61205;BME280;47068;55.780;37.520;2023-07-22T12:40:48;99272.47;;;24.64;34.74
61205;BME280;47068;55.780;37.520;2023-07-22T12:43:14;99274.63;;;24.62;34.24
61205;BME280;47068;55.780;37.520;2023-07-22T12:45:40;99282.25;;;24.60;34.47
61205;BME280;47068;55.780;37.520;2023-07-22T12:48:05;99272.69;;;24.52;35.32
61205;BME280;47068;55.780;37.520;2023-07-22T12:50:32;99285.22;;;24.53;35.83
61205;BME280;47068;55.780;37.520;2023-07-22T12:52:58;99271.03;;;24.46;35.87
61205;BME280;47068;55.780;37.520;2023-07-22T12:55:24;99274.75;;;24.35;36.02
61205;BME280;47068;55.780;37.520;2023-07-22T12:57:50;99258.38;;;24.20;36.16
61205;BME280;47068;55.780;37.520;2023-07-22T13:00:15;99267.63;;;24.24;36.63
61205;BME280;47068;55.780;37.520;2023-07-22T13:02:41;99259.75;;;24.22;36.57
61205;BME280;47068;55.780;37.520;2023-07-22T13:05:07;99237.94;;;24.12;36.08